Time;durP1;ratioP1;P1;durP2;ratioP2;P2;SDS_P1;SDS_P2;PMS_P1;PMS_P2;Temp;Humidity;BMP_temperature;BMP_pressure;BME280_temperature;BME280_humidity;BME280_pressure;Samples;Min_cycle;Max_cycle;Signal;HPM_P1;HPM_P2
2023/08/25 00:01:11;;;;;;;22.15;14.05;;;;;;;30.16;54.56;100983.16;5070056;28;20396;-68
2023/08/25 00:03:37;;;;;;;30.83;14.73;;;;;;;30.39;53.99;100993.66;5079253;28;20067;-68
2023/08/25 00:06:02;;;;;;;22.92;14.75;;;;;;;29.09;58.13;100997.00;5085567;28;20287;-69
2023/08/25 00:08:28;;;;;;;23.08;14.38;;;;;;;29.57;57.04;100988.34;5069232;28;20029;-67
2023/08/25 00:10:53;;;;;;;23.10;14.77;;;;;;;29.55;57.30;101001.13;5070740;28;20039;-68
2023/08/25 00:13:20;;;;;;;24.70;14.60;;;;;;;29.52;57.33;101005.91;5068348;28;20038;-69
2023/08/25 00:15:46;;;;;;;25.58;14.40;;;;;;;29.33;57.08;100995.91;5068817;28;20081;-68
2023/08/25 00:18:11;;;;;;;24.08;13.73;;;;;;;29.57;56.69;100996.44;5068985;28;20024;-67
2023/08/25 00:20:37;;;;;;;27.55;15.35;;;;;;;29.13;58.79;100998.44;5068539;28;20099;-68
2023/08/25 00:23:03;;;;;;;28.42;14.65;;;;;;;29.47;57.27;100998.25;5069329;28;20035;-68
2023/08/25 00:25:30;;;;;;;28.10;14.77;;;;;;;29.43;56.86;100994.13;5072743;28;20500;-68
2023/08/25 00:27:55;;;;;;;28.05;15.05;;;;;;;29.57;55.99;100993.75;5080357;28;20059;-68
2023/08/25 00:30:20;;;;;;;25.80;14.35;;;;;;;29.66;55.51;100985.84;5089201;28;20115;-69
2023/08/25 00:32:46;;;;;;;32.90;16.40;;;;;;;29.70;54.90;100989.97;5089243;28;20384;-69
2023/08/25 00:35:11;;;;;;;25.85;15.60;;;;;;;29.86;55.38;100987.63;5080458;28;20035;-67
2023/08/25 00:37:36;;;;;;;27.55;15.30;;;;;;;29.83;54.53;100987.88;5089225;28;20395;-68
2023/08/25 00:40:02;;;;;;;30.20;16.00;;;;;;;29.52;55.58;100995.97;5088789;28;20027;-67
2023/08/25 00:42:28;;;;;;;31.05;15.60;;;;;;;29.77;54.63;100999.19;5088778;28;20022;-68
2023/08/25 00:44:53;;;;;;;31.38;15.60;;;;;;;29.38;55.56;101004.44;5087928;28;20027;-68
2023/08/25 00:47:19;;;;;;;29.45;16.35;;;;;;;29.66;54.53;100997.44;5083348;28;20063;-69
2023/08/25 00:49:46;;;;;;;28.35;15.63;;;;;;;29.73;54.59;100997.75;5078188;28;20107;-68
2023/08/25 00:52:12;;;;;;;29.70;15.68;;;;;;;29.83;53.78;100998.66;5067491;28;20043;-68
2023/08/25 00:54:39;;;;;;;32.10;15.73;;;;;;;29.91;53.19;101006.94;5075338;28;20036;-69
2023/08/25 00:57:05;;;;;;;28.58;15.90;;;;;;;29.91;53.55;101000.66;5084271;28;20369;-68
2023/08/25 00:59:32;;;;;;;30.27;15.23;;;;;;;29.52;53.90;101001.34;5088080;28;20204;-67
2023/08/25 01:01:58;;;;;;;28.17;14.80;;;;;;;29.60;53.58;101001.53;5088463;28;20026;-68
2023/08/25 01:04:23;;;;;;;27.13;14.25;;;;;;;29.95;52.74;101002.97;5088110;28;20028;-68
2023/08/25 01:06:49;;;;;;;27.60;14.98;;;;;;;29.73;53.59;101003.13;5081810;28;20077;-68
2023/08/25 01:09:15;;;;;;;31.17;15.52;;;;;;;29.50;54.32;101008.72;5086662;28;20032;-68
2023/08/25 01:12:04;;;;;;;28.45;14.30;;;;;;;29.56;54.09;101004.66;5079017;28;20043;-68
2023/08/25 01:14:53;;;;;;;31.27;16.90;;;;;;;29.50;54.69;101013.25;5068835;28;20021;-68
2023/08/25 01:17:37;;;;;;;36.10;17.90;;;;;;;29.25;55.38;101005.50;5082333;28;20031;-68
2023/08/25 01:20:06;;;;;;;28.58;15.90;;;;;;;29.15;55.95;100995.63;5085124;28;20058;-68
2023/08/25 01:23:01;;;;;;;31.85;16.92;;;;;;;29.19;55.48;100995.22;5068596;28;20029;-69
2023/08/25 01:25:28;;;;;;;32.00;16.65;;;;;;;29.40;54.77;100999.75;5070182;28;20506;-69
2023/08/25 01:27:55;;;;;;;31.27;16.25;;;;;;;29.20;54.47;100990.72;5069598;28;20522;-68
2023/08/25 01:30:26;;;;;;;31.00;15.65;;;;;;;29.42;54.43;100982.47;5086381;28;20044;-68
2023/08/25 01:32:51;;;;;;;26.92;15.50;;;;;;;29.38;54.07;100988.28;5089264;28;20028;-68
2023/08/25 01:35:19;;;;;;;26.88;15.52;;;;;;;29.44;54.79;100993.09;5083315;28;20025;-69
2023/08/25 01:37:57;;;;;;;28.30;14.95;;;;;;;29.19;55.08;100989.84;5067231;28;20082;-68
2023/08/25 01:40:44;;;;;;;32.72;17.50;;;;;;;29.15;55.44;100998.31;5078244;28;20522;-68
2023/08/25 01:43:13;;;;;;;28.25;14.93;;;;;;;29.42;54.47;100997.78;5080046;28;20082;-69
2023/08/25 01:45:40;;;;;;;31.48;16.17;;;;;;;29.11;55.17;100989.66;5084425;28;20089;-68
2023/08/25 01:48:06;;;;;;;29.17;16.08;;;;;;;29.40;54.18;100986.28;5086716;28;20031;-68
2023/08/25 01:50:35;;;;;;;27.10;15.10;;;;;;;29.50;54.02;100987.19;5078119;28;20052;-68
2023/08/25 01:53:02;;;;;;;24.77;13.45;;;;;;;28.73;55.86;100983.88;5071020;28;20389;-68
2023/08/25 01:55:28;;;;;;;27.27;15.95;;;;;;;29.18;54.43;100988.16;5067478;28;20491;-69
2023/08/25 01:57:53;;;;;;;27.08;14.20;;;;;;;29.55;53.34;100979.56;5067169;28;20028;-68
2023/08/25 02:00:19;;;;;;;32.30;16.38;;;;;;;29.38;54.36;100972.97;5067984;28;20105;-69
2023/08/25 02:02:45;;;;;;;26.25;14.75;;;;;;;29.54;53.69;100972.47;5087542;28;20046;-68
2023/08/25 02:05:11;;;;;;;27.50;14.45;;;;;;;29.32;54.12;100969.97;5087042;28;20077;-70
2023/08/25 02:07:37;;;;;;;35.13;16.85;;;;;;;29.34;54.79;100976.06;5087040;28;20035;-69
2023/08/25 02:10:03;;;;;;;28.98;15.95;;;;;;;29.73;53.78;100973.50;5086699;28;20028;-68
2023/08/25 02:12:28;;;;;;;30.05;16.67;;;;;;;29.13;54.85;100968.84;5084691;28;20036;-69
2023/08/25 02:14:54;;;;;;;32.47;16.95;;;;;;;29.47;53.80;100971.31;5074899;28;20030;-68
2023/08/25 02:17:19;;;;;;;37.63;17.75;;;;;;;29.59;53.82;100970.25;5082048;28;20036;-69
2023/08/25 02:19:44;;;;;;;34.13;17.08;;;;;;;29.41;54.38;100974.53;5087232;28;20383;-68
2023/08/25 02:22:13;;;;;;;33.92;17.00;;;;;;;29.81;53.32;100967.44;5070175;28;20025;-68
2023/08/25 02:24:38;;;;;;;34.42;17.33;;;;;;;29.37;54.17;100965.03;5067642;28;20035;-69
2023/08/25 02:27:04;;;;;;;37.08;17.70;;;;;;;29.90;53.23;100964.81;5083737;28;20025;-68
2023/08/25 02:29:29;;;;;;;37.90;17.27;;;;;;;29.87;53.48;100957.00;5082104;28;20032;-68
2023/08/25 02:31:55;;;;;;;34.70;17.58;;;;;;;29.71;53.44;100951.28;5082820;28;20032;-69
2023/08/25 02:34:22;;;;;;;36.67;18.10;;;;;;;29.73;53.61;100950.16;5077536;28;20424;-68
2023/08/25 02:36:47;;;;;;;36.03;17.85;;;;;;;29.62;53.72;100947.53;5089362;28;20038;-68
2023/08/25 02:39:12;;;;;;;38.42;19.02;;;;;;;29.73;53.94;100939.38;5091392;28;20036;-69
2023/08/25 02:41:38;;;;;;;36.08;17.42;;;;;;;29.72;53.82;100943.06;5089895;28;20024;-69
2023/08/25 02:44:03;;;;;;;35.15;17.83;;;;;;;29.88;53.36;100941.69;5091130;28;20111;-68
2023/08/25 02:46:29;;;;;;;34.47;17.48;;;;;;;30.09;53.16;100925.44;5089748;28;20028;-68
2023/08/25 02:48:54;;;;;;;38.28;16.67;;;;;;;30.00;52.85;100918.19;5092071;28;20476;-68
2023/08/25 02:51:19;;;;;;;34.38;17.55;;;;;;;30.00;53.10;100915.50;5090568;28;20027;-69
2023/08/25 02:53:45;;;;;;;37.17;17.90;;;;;;;29.90;53.13;100913.63;5089095;28;20167;-69
2023/08/25 02:56:13;;;;;;;38.17;17.17;;;;;;;30.00;52.89;100907.41;5078808;28;20062;-68
2023/08/25 02:58:38;;;;;;;34.10;17.90;;;;;;;30.25;51.67;100912.25;5091079;28;20051;-68
2023/08/25 03:01:13;;;;;;;29.98;16.70;;;;;;;30.37;51.53;100907.53;5089009;28;20016;-68
2023/08/25 03:03:39;;;;;;;34.45;18.77;;;;;;;30.19;52.32;100901.19;5070375;28;20028;-69
2023/08/25 03:06:05;;;;;;;32.13;17.15;;;;;;;30.10;52.65;100906.44;5090021;28;20107;-68
2023/08/25 03:08:30;;;;;;;36.65;16.65;;;;;;;30.12;52.48;100901.72;5091261;28;20280;-69
2023/08/25 03:10:55;;;;;;;32.88;16.90;;;;;;;30.48;51.29;100898.47;5072627;28;20028;-68
2023/08/25 03:13:21;;;;;;;32.08;15.77;;;;;;;30.49;51.72;100894.81;5085892;28;20054;-68
2023/08/25 03:15:48;;;;;;;31.73;15.95;;;;;;;30.01;52.76;100892.94;5088089;28;20052;-68
2023/08/25 03:18:16;;;;;;;33.95;16.20;;;;;;;30.50;51.94;100888.41;5085693;28;20560;-73
2023/08/25 03:20:42;;;;;;;37.03;17.15;;;;;;;30.40;51.87;100887.53;5090868;28;20058;-68
2023/08/25 03:23:07;;;;;;;36.58;16.75;;;;;;;30.16;52.40;100891.53;5091468;28;20051;-69
2023/08/25 03:25:37;;;;;;;38.50;18.60;;;;;;;30.21;52.90;100883.88;5088247;28;20031;-68
2023/08/25 03:28:03;;;;;;;34.90;17.33;;;;;;;30.51;51.91;100884.69;5091929;28;20026;-68
2023/08/25 03:30:28;;;;;;;29.20;15.70;;;;;;;30.57;51.68;100884.16;5089267;28;20036;-68
2023/08/25 03:32:54;;;;;;;33.55;16.55;;;;;;;30.22;52.09;100880.16;5090527;28;20556;-68
2023/08/25 03:35:20;;;;;;;32.08;15.98;;;;;;;30.62;51.30;100876.47;5089557;28;20471;-68
2023/08/25 03:37:45;;;;;;;36.38;18.20;;;;;;;30.36;52.50;100875.34;5069853;28;20080;-68
2023/08/25 03:40:11;;;;;;;39.60;17.77;;;;;;;30.48;51.79;100874.22;5068764;28;20028;-69
2023/08/25 03:42:36;;;;;;;36.28;16.83;;;;;;;30.58;51.24;100869.66;5070277;28;20024;-68
2023/08/25 03:45:02;;;;;;;34.45;17.85;;;;;;;30.76;51.40;100882.38;5069494;28;20085;-68
2023/08/25 03:47:27;;;;;;;33.58;15.70;;;;;;;30.39;51.67;100875.03;5079818;28;20505;-68
2023/08/25 03:49:53;;;;;;;30.75;15.13;;;;;;;30.56;51.60;100871.66;5071418;28;20108;-68
2023/08/25 03:52:18;;;;;;;31.75;16.35;;;;;;;30.25;52.44;100869.13;5068113;28;20020;-68
2023/08/25 03:54:44;;;;;;;33.30;15.82;;;;;;;30.14;52.38;100874.63;5071309;28;20031;-68
2023/08/25 03:57:09;;;;;;;32.20;15.27;;;;;;;30.36;52.05;100869.94;5068545;28;20028;-68
2023/08/25 03:59:34;;;;;;;33.60;15.25;;;;;;;30.47;52.00;100872.50;5068936;28;20128;-68
2023/08/25 04:02:01;;;;;;;32.28;15.63;;;;;;;30.54;51.02;100873.66;5069969;28;20012;-68
2023/08/25 04:04:27;;;;;;;31.45;16.13;;;;;;;30.14;52.55;100863.84;5069621;28;20408;-68
2023/08/25 04:06:53;;;;;;;30.00;15.13;;;;;;;30.40;51.79;100860.56;5083000;28;20123;-68
2023/08/25 04:09:19;;;;;;;28.45;15.50;;;;;;;30.56;51.45;100850.06;5083754;28;20109;-69
2023/08/25 04:11:45;;;;;;;29.50;15.48;;;;;;;30.22;51.98;100847.81;5088930;28;20052;-68
2023/08/25 04:14:11;;;;;;;33.67;16.70;;;;;;;30.39;52.01;100853.47;5089419;28;20024;-68
2023/08/25 04:16:37;;;;;;;34.88;15.95;;;;;;;30.34;51.84;100855.78;5089070;28;20515;-68
2023/08/25 04:19:02;;;;;;;32.90;17.27;;;;;;;30.51;50.92;100844.25;5071701;28;20496;-69
2023/08/25 04:21:28;;;;;;;28.85;15.32;;;;;;;30.55;51.28;100852.91;5086048;28;20024;-69
2023/08/25 04:23:53;;;;;;;36.03;16.73;;;;;;;30.51;51.72;100857.75;5089661;28;20034;-68
2023/08/25 04:26:19;;;;;;;31.80;15.82;;;;;;;30.56;51.41;100855.47;5081143;28;20032;-68
2023/08/25 04:28:44;;;;;;;36.25;17.58;;;;;;;30.50;52.00;100856.06;5069083;28;20025;-68
2023/08/25 04:31:09;;;;;;;30.52;14.98;;;;;;;30.77;50.79;100849.03;5086183;28;20064;-68
2023/08/25 04:33:35;;;;;;;34.55;17.15;;;;;;;30.63;51.04;100856.56;5088739;28;20411;-68
2023/08/25 04:36:00;;;;;;;32.38;16.77;;;;;;;30.38;51.63;100855.34;5084135;28;20032;-69
2023/08/25 04:38:25;;;;;;;35.17;16.30;;;;;;;30.23;52.30;100849.53;5068554;28;20107;-68
2023/08/25 04:40:51;;;;;;;34.88;16.40;;;;;;;30.54;51.34;100854.78;5069285;28;20387;-68
2023/08/25 04:43:16;;;;;;;31.60;16.95;;;;;;;30.59;50.99;100857.88;5068768;28;20031;-70
2023/08/25 04:45:42;;;;;;;34.83;16.67;;;;;;;30.38;51.71;100852.63;5069921;28;20035;-69
2023/08/25 04:48:08;;;;;;;33.03;15.95;;;;;;;30.33;52.32;100854.91;5087811;28;20031;-69
2023/08/25 04:50:34;;;;;;;31.42;16.20;;;;;;;30.57;51.17;100862.56;5069707;28;20035;-69
2023/08/25 04:53:00;;;;;;;32.60;16.08;;;;;;;30.52;51.40;100854.06;5068620;28;20056;-69
2023/08/25 04:55:25;;;;;;;26.15;13.48;;;;;;;30.33;52.09;100854.91;5069827;28;20437;-69
2023/08/25 04:57:50;;;;;;;34.53;16.85;;;;;;;30.41;52.24;100859.59;5087454;28;20737;-69
2023/08/25 05:00:16;;;;;;;36.38;17.05;;;;;;;29.93;53.16;100859.47;5076980;28;20056;-69
2023/08/25 05:02:41;;;;;;;35.35;17.40;;;;;;;29.88;53.43;100861.75;5088051;28;20023;-69
2023/08/25 05:05:09;;;;;;;39.10;17.23;;;;;;;29.81;53.82;100857.84;5089417;28;20054;-70
2023/08/25 05:07:34;;;;;;;35.22;17.58;;;;;;;30.18;52.76;100851.78;5081352;28;20372;-69
2023/08/25 05:10:00;;;;;;;37.55;17.20;;;;;;;30.01;53.23;100860.63;5076850;28;20034;-69
2023/08/25 05:12:26;;;;;;;29.55;15.85;;;;;;;29.96;53.73;100858.34;5074497;28;20024;-69
2023/08/25 05:14:51;;;;;;;34.80;17.67;;;;;;;29.51;55.44;100859.69;5078592;28;20049;-69
2023/08/25 05:17:16;;;;;;;32.15;17.85;;;;;;;29.90;54.06;100850.81;5078672;28;20070;-69
2023/08/25 05:19:42;;;;;;;36.67;17.77;;;;;;;29.59;54.77;100851.75;5088277;28;20079;-69
2023/08/25 05:22:07;;;;;;;41.45;19.67;;;;;;;29.37;55.73;100865.44;5068231;28;20026;-68
2023/08/25 05:24:32;;;;;;;40.30;17.92;;;;;;;29.44;55.75;100861.19;5075369;28;20494;-69
2023/08/25 05:26:58;;;;;;;33.50;18.05;;;;;;;29.65;55.73;100849.47;5073384;28;20028;-69
2023/08/25 05:29:25;;;;;;;39.72;17.67;;;;;;;30.05;54.13;100852.09;5081596;28;20394;-68
2023/08/25 05:31:51;;;;;;;33.65;17.38;;;;;;;29.87;54.12;100843.88;5088710;28;20028;-68
2023/08/25 05:34:17;;;;;;;36.38;18.48;;;;;;;30.11;53.72;100839.91;5086792;28;20035;-70
2023/08/25 05:36:43;;;;;;;36.95;17.52;;;;;;;29.90;53.92;100843.59;5081190;28;20103;-69
2023/08/25 05:39:09;;;;;;;40.53;19.83;;;;;;;30.15;53.60;100841.31;5068139;28;20032;-69
2023/08/25 05:41:34;;;;;;;40.45;19.23;;;;;;;30.18;53.88;100841.00;5070057;28;20074;-68
2023/08/25 05:44:01;;;;;;;37.03;18.13;;;;;;;30.07;54.22;100839.31;5067522;28;20036;-68
2023/08/25 05:46:29;;;;;;;36.67;18.23;;;;;;;30.41;52.67;100836.16;5076739;28;20115;-68
2023/08/25 05:48:54;;;;;;;37.35;18.73;;;;;;;29.88;54.23;100842.91;5082585;28;20188;-68
2023/08/25 05:51:19;;;;;;;38.05;17.75;;;;;;;29.92;54.58;100847.00;5080481;28;20024;-69
2023/08/25 05:53:45;;;;;;;36.42;17.70;;;;;;;30.08;53.67;100841.03;5085430;28;20028;-68
2023/08/25 05:56:11;;;;;;;41.03;18.27;;;;;;;30.42;53.10;100847.81;5075751;28;20391;-69
2023/08/25 05:58:36;;;;;;;36.00;18.05;;;;;;;30.36;53.43;100840.28;5066948;28;20408;-68
2023/08/25 06:01:02;;;;;;;33.05;16.38;;;;;;;30.39;52.75;100831.91;5085784;28;20020;-68
2023/08/25 06:03:27;;;;;;;42.25;18.02;;;;;;;30.84;52.35;100828.53;5086730;28;20038;-69
2023/08/25 06:05:53;;;;;;;38.78;18.35;;;;;;;30.89;51.91;100828.97;5073108;28;20040;-68
2023/08/25 06:08:22;;;;;;;37.92;17.05;;;;;;;30.61;52.42;100831.63;5075017;28;20024;-69
2023/08/25 06:10:49;;;;;;;37.55;18.25;;;;;;;30.50;53.42;100831.78;5080666;28;20028;-69
2023/08/25 06:13:14;;;;;;;35.92;18.65;;;;;;;30.42;52.96;100826.25;5092780;28;20082;-69
2023/08/25 06:15:40;;;;;;;37.15;16.70;;;;;;;30.34;53.38;100824.28;5090617;28;20019;-68
2023/08/25 06:18:05;;;;;;;34.38;16.83;;;;;;;30.23;53.66;100827.97;5085724;28;20031;-68
2023/08/25 06:20:31;;;;;;;35.03;16.23;;;;;;;30.59;53.01;100827.38;5089145;28;20103;-69
2023/08/25 06:22:57;;;;;;;34.47;17.90;;;;;;;30.54;53.15;100833.22;5092876;28;20472;-68
2023/08/25 06:25:23;;;;;;;34.72;16.80;;;;;;;30.50;53.41;100831.78;5090422;28;20039;-68
2023/08/25 06:27:48;;;;;;;39.97;17.63;;;;;;;30.51;53.21;100836.16;5081546;28;20119;-69
2023/08/25 06:30:14;;;;;;;37.25;16.58;;;;;;;30.61;52.62;100834.31;5088906;28;20514;-68
2023/08/25 06:32:40;;;;;;;39.35;16.92;;;;;;;31.05;52.01;100831.06;5079615;28;20378;-69
2023/08/25 06:35:06;;;;;;;34.20;16.25;;;;;;;30.60;52.99;100834.47;5072422;28;20031;-68
2023/08/25 06:37:34;;;;;;;36.55;16.58;;;;;;;30.95;52.39;100833.78;5073798;28;22378;-69
2023/08/25 06:40:05;;;;;;;32.78;14.70;;;;;;;29.17;57.96;100841.13;5090860;28;20065;-68
2023/08/25 06:42:31;;;;;;;30.52;14.82;;;;;;;30.35;53.81;100836.75;5091147;28;20083;-68
2023/08/25 06:44:56;;;;;;;29.80;13.82;;;;;;;30.71;52.42;100842.38;5092876;28;20034;-68
2023/08/25 06:47:22;;;;;;;29.20;13.63;;;;;;;31.40;51.73;100837.53;5080017;28;20077;-68
2023/08/25 06:49:47;;;;;;;22.17;11.52;;;;;;;30.39;53.20;100854.34;5091376;28;20392;-68
2023/08/25 06:52:12;;;;;;;20.58;10.90;;;;;;;30.32;53.06;100841.56;5073997;28;20453;-68
2023/08/25 06:54:38;;;;;;;24.80;11.50;;;;;;;30.81;51.98;100842.34;5070302;28;20056;-68
2023/08/25 06:57:03;;;;;;;23.42;11.60;;;;;;;30.75;51.09;100833.00;5075473;28;20471;-68
2023/08/25 06:59:28;;;;;;;20.33;10.13;;;;;;;31.27;50.67;100827.09;5079309;28;20131;-68
2023/08/25 07:01:54;;;;;;;26.48;11.40;;;;;;;30.57;52.44;100819.41;5070142;28;20023;-68
2023/08/25 07:04:19;;;;;;;22.50;10.55;;;;;;;29.95;54.18;100814.38;5074134;28;20031;-68
2023/08/25 07:06:45;;;;;;;25.20;12.02;;;;;;;31.11;51.69;100816.94;5079542;28;20024;-68
2023/08/25 07:09:13;;;;;;;28.67;11.32;;;;;;;29.87;54.55;100821.47;5084379;28;20503;-69
2023/08/25 07:11:38;;;;;;;23.10;11.77;;;;;;;29.72;53.76;100807.56;5079235;28;20028;-68
2023/08/25 07:14:04;;;;;;;24.73;11.55;;;;;;;30.58;51.63;100810.34;5070486;28;20066;-68
2023/08/25 07:16:29;;;;;;;20.35;10.75;;;;;;;29.77;53.08;100806.13;5070004;28;20039;-68
2023/08/25 07:18:55;;;;;;;19.80;12.02;;;;;;;29.54;54.78;100810.06;5081181;28;20032;-68
2023/08/25 07:21:21;;;;;;;19.85;10.93;;;;;;;29.79;53.84;100804.13;5087957;28;20437;-68
2023/08/25 07:23:47;;;;;;;21.80;10.75;;;;;;;29.99;53.17;100797.94;5072316;28;20032;-68
2023/08/25 07:26:13;;;;;;;20.27;11.00;;;;;;;30.32;52.09;100788.50;5071231;28;20499;-68
2023/08/25 07:28:38;;;;;;;18.77;11.15;;;;;;;30.27;52.51;100794.34;5077163;28;20513;-68
2023/08/25 07:31:04;;;;;;;21.42;11.38;;;;;;;30.25;52.26;100799.03;5089318;28;20046;-68
2023/08/25 07:33:29;;;;;;;20.65;11.13;;;;;;;29.90;52.57;100797.78;5089841;28;20023;-68
2023/08/25 07:35:57;;;;;;;21.10;10.38;;;;;;;30.86;50.49;100796.88;5091084;28;20032;-68
2023/08/25 07:38:23;;;;;;;23.30;12.32;;;;;;;30.93;49.92;100803.38;5090405;28;20085;-67
2023/08/25 07:40:48;;;;;;;21.15;11.20;;;;;;;31.16;49.05;100813.81;5091850;28;20027;-68
2023/08/25 07:43:14;;;;;;;19.60;10.30;;;;;;;30.62;50.48;100814.44;5090806;28;20055;-68
2023/08/25 07:45:39;;;;;;;22.45;12.02;;;;;;;30.34;51.24;100815.34;5090505;28;20020;-68
2023/08/25 07:48:05;;;;;;;23.05;12.13;;;;;;;29.95;52.94;100818.91;5090741;28;20541;-68
2023/08/25 07:50:31;;;;;;;24.40;13.02;;;;;;;29.92;52.64;100817.38;5088186;28;20048;-68
2023/08/25 07:52:58;;;;;;;25.75;13.07;;;;;;;29.21;54.27;100831.78;5090091;28;20020;-68
2023/08/25 07:55:24;;;;;;;27.05;12.55;;;;;;;29.53;53.88;100819.16;5089673;28;20047;-69
2023/08/25 07:57:50;;;;;;;24.60;13.23;;;;;;;29.82;53.57;100821.84;5090793;28;20032;-67
2023/08/25 08:00:17;;;;;;;23.63;13.38;;;;;;;30.08;52.85;100824.03;5069861;28;20496;-69
2023/08/25 08:02:44;;;;;;;24.05;13.63;;;;;;;29.81;53.09;100825.53;5069876;28;20029;-68
2023/08/25 08:05:11;;;;;;;26.27;12.35;;;;;;;30.80;50.87;100819.03;5068787;28;20119;-68
2023/08/25 08:07:37;;;;;;;20.95;11.85;;;;;;;32.02;48.90;100814.34;5069737;28;20036;-68
2023/08/25 08:10:04;;;;;;;24.73;12.60;;;;;;;30.46;50.79;100819.59;5069537;28;20039;-69
2023/08/25 08:12:30;;;;;;;25.40;12.10;;;;;;;30.94;50.27;100818.56;5068110;28;20384;-68
2023/08/25 08:14:56;;;;;;;23.58;11.63;;;;;;;30.96;50.00;100819.25;5069469;28;20021;-68
2023/08/25 08:17:21;;;;;;;22.48;11.25;;;;;;;31.40;49.41;100820.50;5085488;28;20404;-68
2023/08/25 08:19:48;;;;;;;21.70;11.35;;;;;;;31.58;48.01;100818.66;5090900;28;20036;-68
2023/08/25 08:22:13;;;;;;;22.95;12.40;;;;;;;30.25;50.77;100823.31;5088991;28;20030;-68
2023/08/25 08:24:41;;;;;;;27.80;11.63;;;;;;;30.30;50.68;100817.47;5089061;28;20103;-68
2023/08/25 08:27:07;;;;;;;24.30;11.50;;;;;;;30.50;50.77;100812.06;5087765;28;20118;-68
2023/08/25 08:29:32;;;;;;;27.17;12.20;;;;;;;30.69;49.98;100821.94;5089005;28;20122;-68
2023/08/25 08:31:58;;;;;;;30.13;13.10;;;;;;;30.03;51.84;100820.91;5088593;28;20479;-68
2023/08/25 08:34:23;;;;;;;25.00;12.32;;;;;;;31.00;49.33;100824.38;5088912;28;20024;-68
2023/08/25 08:36:49;;;;;;;25.23;13.13;;;;;;;30.81;49.52;100831.53;5079045;28;20036;-69
2023/08/25 08:39:15;;;;;;;27.33;13.52;;;;;;;30.93;49.42;100829.53;5067731;28;20032;-69
2023/08/25 08:41:40;;;;;;;23.70;12.50;;;;;;;32.08;47.39;100836.22;5070450;28;20021;-68
2023/08/25 08:44:13;;;;;;;27.67;12.57;;;;;;;31.99;47.18;100842.53;5068936;28;20064;-68
2023/08/25 08:46:41;;;;;;;26.13;12.30;;;;;;;31.84;46.81;100842.22;5075693;28;20028;-68
2023/08/25 08:49:08;;;;;;;21.65;12.15;;;;;;;31.56;46.60;100842.28;5089181;28;20023;-68
2023/08/25 08:51:36;;;;;;;25.10;12.18;;;;;;;31.61;46.67;100844.53;5088561;28;20085;-68
2023/08/25 08:54:04;;;;;;;25.80;12.10;;;;;;;31.22;47.50;100845.59;5089588;28;20487;-67
2023/08/25 08:56:31;;;;;;;18.15;10.45;;;;;;;32.44;45.22;100846.97;5087404;28;20483;-68
2023/08/25 08:58:57;;;;;;;24.95;12.10;;;;;;;31.51;46.59;100838.34;5080906;28;20044;-68
2023/08/25 09:01:23;;;;;;;21.25;11.70;;;;;;;31.44;46.62;100838.09;5050865;28;20438;-68
2023/08/25 09:03:50;;;;;;;24.30;11.07;;;;;;;31.41;47.35;100844.63;5051228;28;20031;-69
2023/08/25 09:06:16;;;;;;;22.52;12.40;;;;;;;31.82;46.26;100846.09;5044619;28;20036;-68
2023/08/25 09:08:43;;;;;;;24.42;13.05;;;;;;;31.18;47.00;100855.00;5030853;28;20029;-68
2023/08/25 09:11:08;;;;;;;26.23;13.57;;;;;;;31.54;47.06;100849.66;5049719;28;20021;-68
2023/08/25 09:13:35;;;;;;;30.55;13.30;;;;;;;32.02;45.77;100846.78;5031394;28;20063;-68
2023/08/25 09:16:14;;;;;;;34.20;13.48;;;;;;;31.79;45.98;100858.03;5034964;28;20040;-68
2023/08/25 09:18:40;;;;;;;26.90;13.95;;;;;;;33.41;42.67;100859.53;5051624;28;20429;-68
2023/08/25 09:21:23;;;;;;;22.02;11.35;;;;;;;33.39;42.05;100864.28;5051082;28;20032;-68
2023/08/25 09:23:54;;;;;;;22.45;10.88;;;;;;;32.94;42.89;100858.97;5050497;28;20032;-68
2023/08/25 09:26:20;;;;;;;25.38;11.57;;;;;;;33.72;40.64;100848.09;5051063;28;20063;-68
2023/08/25 09:28:45;;;;;;;19.25;10.27;;;;;;;33.08;41.31;100854.78;5068603;28;20104;-68
2023/08/25 09:31:22;;;;;;;18.80;10.68;;;;;;;33.57;41.32;100859.56;5051102;28;20617;-69
2023/08/25 09:33:49;;;;;;;22.02;12.20;;;;;;;32.64;42.30;100861.16;5040099;28;20568;-69
2023/08/25 09:36:15;;;;;;;20.92;10.80;;;;;;;31.39;45.38;100864.69;5046976;28;20017;-69
2023/08/25 09:38:44;;;;;;;21.52;10.18;;;;;;;31.47;44.84;100853.97;5030819;28;20025;-68
2023/08/25 09:41:11;;;;;;;22.70;11.98;;;;;;;32.69;43.97;100849.84;5048160;28;20029;-68
2023/08/25 09:43:39;;;;;;;20.90;11.65;;;;;;;33.67;41.73;100847.75;5030994;28;20028;-69
2023/08/25 09:46:08;;;;;;;19.98;10.48;;;;;;;33.12;42.28;100855.31;5035222;28;20078;-68
2023/08/25 09:48:35;;;;;;;24.00;10.65;;;;;;;33.43;41.80;100846.69;5067075;28;20388;-69
2023/08/25 09:51:01;;;;;;;25.55;12.25;;;;;;;32.13;43.13;100843.84;5051880;28;20036;-68
2023/08/25 09:53:33;;;;;;;25.35;12.00;;;;;;;34.48;40.13;100837.97;5039055;28;20123;-68
2023/08/25 09:56:06;;;;;;;21.77;9.40;;;;;;;34.26;39.79;100848.47;5050828;28;20388;-68
2023/08/25 09:58:33;;;;;;;17.50;10.13;;;;;;;33.65;39.33;100846.03;5073423;28;20097;-69
2023/08/25 10:00:59;;;;;;;23.70;9.77;;;;;;;34.23;39.86;100843.38;5082409;28;20024;-68
2023/08/25 10:03:26;;;;;;;20.30;10.73;;;;;;;33.42;40.84;100853.09;5080139;28;20479;-68
2023/08/25 10:05:52;;;;;;;22.83;10.60;;;;;;;33.28;41.32;100847.31;5088134;28;20027;-69
2023/08/25 10:08:18;;;;;;;24.88;11.07;;;;;;;33.59;41.34;100841.31;5087749;28;20437;-69
2023/08/25 10:10:44;;;;;;;24.90;11.73;;;;;;;33.33;41.01;100840.53;5083203;28;20016;-68
2023/08/25 10:13:13;;;;;;;20.50;10.10;;;;;;;33.14;41.93;100837.91;5082638;28;20035;-68
2023/08/25 10:15:41;;;;;;;18.25;9.65;;;;;;;32.86;41.80;100831.84;5075636;28;20028;-69
2023/08/25 10:18:08;;;;;;;17.15;10.25;;;;;;;32.93;41.73;100827.53;5088991;28;20039;-68
2023/08/25 10:20:35;;;;;;;20.65;11.38;;;;;;;31.96;42.94;100822.06;5085392;28;20099;-69
2023/08/25 10:23:04;;;;;;;22.13;10.77;;;;;;;33.11;42.00;100810.31;5089683;28;20491;-69
2023/08/25 10:25:31;;;;;;;25.30;10.32;;;;;;;32.81;41.85;100812.56;5078362;28;20396;-69
2023/08/25 10:28:03;;;;;;;21.63;11.13;;;;;;;32.97;42.19;100815.34;5087959;28;20480;-68
2023/08/25 10:30:29;;;;;;;20.67;10.90;;;;;;;32.68;42.66;100814.84;5089000;28;20032;-68
2023/08/25 10:33:24;;;;;;;21.55;10.75;;;;;;;33.04;42.60;100822.81;5088304;28;20491;-68
2023/08/25 10:35:53;;;;;;;18.90;10.50;;;;;;;32.72;42.53;100821.66;5074616;28;20074;-68
2023/08/25 10:38:19;;;;;;;19.98;11.00;;;;;;;32.42;43.51;100821.09;5086668;28;20427;-69
2023/08/25 10:40:52;;;;;;;22.33;10.88;;;;;;;32.20;42.33;100823.31;5088370;28;20159;-69
2023/08/25 10:43:31;;;;;;;20.48;11.88;;;;;;;31.82;43.70;100819.94;5087405;28;20480;-68
2023/08/25 10:45:56;;;;;;;24.45;11.55;;;;;;;33.16;41.75;100818.78;5087640;28;20035;-68
2023/08/25 10:48:25;;;;;;;18.00;9.70;;;;;;;33.50;41.10;100820.63;5087054;28;20387;-69
2023/08/25 10:51:09;;;;;;;15.48;9.60;;;;;;;32.09;42.03;100820.81;5090065;28;20789;-69
2023/08/25 10:53:42;;;;;;;20.40;9.82;;;;;;;32.67;41.80;100819.38;5090170;28;20020;-68
2023/08/25 10:56:17;;;;;;;13.18;8.48;;;;;;;33.11;41.07;100821.13;5090084;28;20039;-68
2023/08/25 10:58:53;;;;;;;19.35;9.63;;;;;;;34.45;39.87;100816.63;5074294;28;20053;-68
2023/08/25 11:01:19;;;;;;;14.45;8.50;;;;;;;34.19;38.87;100809.50;5074209;28;20044;-68
2023/08/25 11:04:01;;;;;;;15.40;8.00;;;;;;;34.38;38.80;100821.03;5074713;28;20059;-69
2023/08/25 11:06:37;;;;;;;23.98;8.23;;;;;;;34.04;38.48;100817.47;5083500;28;20734;-68
2023/08/25 11:09:03;;;;;;;17.08;7.70;;;;;;;34.69;37.60;100814.84;5071383;28;20459;-68